Time;durP1;ratioP1;P1;durP2;ratioP2;P2;SDS_P1;SDS_P2;PMS_P1;PMS_P2;Temp;Humidity;BMP_temperature;BMP_pressure;BME280_temperature;BME280_humidity;BME280_pressure;Samples;Min_cycle;Max_cycle;Signal;HPM_P1;HPM_P2
2022/12/18 00:02:00;;;;;;;;;;;;;;;-3.02;100.00;101792.81;5555427;32;34437;-71
2022/12/18 00:05:05;;;;;;;;;;;;;;;-3.08;100.00;101790.41;5568751;32;34877;-70
2022/12/18 00:08:13;;;;;;;;;;;;;;;-3.03;100.00;101792.87;5568541;32;34421;-71
2022/12/18 00:11:20;;;;;;;;;;;;;;;-3.04;100.00;101809.31;5568622;32;34271;-71
2022/12/18 00:14:25;;;;;;;;;;;;;;;-3.17;100.00;101819.25;5568654;32;34325;-70
2022/12/18 00:17:32;;;;;;;;;;;;;;;-3.08;100.00;101832.78;5568522;32;34244;-70
2022/12/18 00:20:39;;;;;;;;;;;;;;;-3.13;100.00;101839.87;5568547;32;34590;-71
2022/12/18 00:23:47;;;;;;;;;;;;;;;-3.26;100.00;101841.13;5568328;32;34902;-71
2022/12/18 00:26:54;;;;;;;;;;;;;;;-3.18;100.00;101851.28;5570356;32;34321;-70
2022/12/18 00:30:03;;;;;;;;;;;;;;;-3.20;100.00;101863.47;5571373;32;34934;-71
2022/12/18 00:33:08;;;;;;;;;;;;;;;-3.20;100.00;101871.25;5571404;32;33810;-71
2022/12/18 00:36:17;;;;;;;;;;;;;;;-3.11;100.00;101870.97;5571306;32;34687;-71
2022/12/18 00:39:22;;;;;;;;;;;;;;;-3.17;100.00;101860.78;5570946;32;34564;-70
2022/12/18 00:45:55;;;;;;;;;;;;;;;-3.18;100.00;101870.28;5557402;32;35113;-70
2022/12/18 00:49:02;;;;;;;;;;;;;;;-3.23;100.00;101872.16;5557325;32;34910;-70
2022/12/18 00:52:08;;;;;;;;;;;;;;;-3.25;100.00;101870.53;5571066;32;34867;-70
2022/12/18 00:55:15;;;;;;;;;;;;;;;-3.26;100.00;101869.69;5571136;32;34126;-72
2022/12/18 00:58:24;;;;;;;;;;;;;;;-3.29;100.00;101874.13;5571171;32;34868;-71
2022/12/18 01:01:30;;;;;;;;;;;;;;;-3.25;100.00;101876.56;5571126;32;34770;-70
2022/12/18 01:04:37;;;;;;;;;;;;;;;-3.33;100.00;101886.31;5571044;32;34196;-71
2022/12/18 01:07:43;;;;;;;;;;;;;;;-3.32;100.00;101892.34;5557451;32;35135;-71
2022/12/18 01:10:49;;;;;;;;;;;;;;;-3.32;100.00;101900.12;5570887;32;35016;-71
2022/12/18 01:13:55;;;;;;;;;;;;;;;-3.33;100.00;101908.78;5557636;32;34829;-71
2022/12/18 01:17:04;;;;;;;;;;;;;;;-3.40;100.00;101908.13;5570922;32;34192;-71
2022/12/18 01:20:11;;;;;;;;;;;;;;;-3.36;100.00;101909.75;5570901;32;34205;-71
2022/12/18 01:23:16;;;;;;;;;;;;;;;-3.37;100.00;101913.22;5570759;32;34615;-71
2022/12/18 01:26:24;;;;;;;;;;;;;;;-3.34;100.00;101912.31;5570914;32;33900;-69
2022/12/18 01:29:32;;;;;;;;;;;;;;;-3.37;100.00;101909.78;5571100;32;34192;-70
2022/12/18 01:32:40;;;;;;;;;;;;;;;-3.37;100.00;101917.56;5557119;32;35116;-70
2022/12/18 01:35:47;;;;;;;;;;;;;;;-3.36;100.00;101914.09;5557343;32;34561;-70
2022/12/18 01:38:55;;;;;;;;;;;;;;;-3.40;100.00;101920.25;5570547;32;34268;-71
2022/12/18 01:42:04;;;;;;;;;;;;;;;-3.44;100.00;101924.69;5556665;32;35066;-70
2022/12/18 01:45:12;;;;;;;;;;;;;;;-3.46;100.00;101923.88;5557452;32;34903;-70
2022/12/18 01:48:18;;;;;;;;;;;;;;;-3.46;100.00;101936.84;5570614;32;34260;-71
2022/12/18 01:51:25;;;;;;;;;;;;;;;-3.53;100.00;101932.69;5570663;32;34660;-70
2022/12/18 01:54:32;;;;;;;;;;;;;;;-3.34;100.00;101939.09;5570715;32;34339;-71
2022/12/18 01:57:42;;;;;;;;;;;;;;;-3.37;100.00;101944.38;5570678;32;34874;-69
2022/12/18 02:00:47;;;;;;;;;;;;;;;-3.41;100.00;101939.31;5570530;32;34936;-70
2022/12/18 02:04:16;;;;;;;;;;;;;;;-3.38;100.00;101953.03;5570374;32;34858;-70
2022/12/18 02:07:30;;;;;;;;;;;;;;;-3.41;100.00;101944.50;5570534;32;34352;-68
2022/12/18 02:10:43;;;;;;;;;;;;;;;-3.44;100.00;101942.84;5570491;32;34229;-69
2022/12/18 02:14:00;;;;;;;;;;;;;;;-3.28;100.00;101949.31;5556559;32;35624;-69
2022/12/18 02:17:11;;;;;;;;;;;;;;;-3.29;100.00;101960.56;5556293;32;34349;-70
2022/12/18 02:20:20;;;;;;;;;;;;;;;-3.32;100.00;101963.25;5570534;32;34811;-70
2022/12/18 02:23:27;;;;;;;;;;;;;;;-3.38;100.00;101971.19;5570406;32;34919;-69
2022/12/18 02:26:34;;;;;;;;;;;;;;;-3.47;100.00;101973.19;5570364;32;34909;-70
2022/12/18 02:29:55;;;;;;;;;;;;;;;-3.49;100.00;101970.66;5556199;32;34398;-71
2022/12/18 02:33:06;;;;;;;;;;;;;;;-3.54;100.00;101978.56;5570762;32;33134;-70
2022/12/18 02:36:16;;;;;;;;;;;;;;;-3.48;100.00;101984.44;5557152;32;34792;-69
2022/12/18 02:39:27;;;;;;;;;;;;;;;-3.49;100.00;101982.75;5570272;32;34886;-69
2022/12/18 02:42:34;;;;;;;;;;;;;;;-3.43;100.00;101991.22;5570184;32;34098;-69
2022/12/18 02:45:50;;;;;;;;;;;;;;;-3.56;100.00;101985.50;5556128;32;33210;-69
2022/12/18 02:49:08;;;;;;;;;;;;;;;-3.53;100.00;101988.00;5569285;32;34873;-70
2022/12/18 02:52:18;;;;;;;;;;;;;;;-3.57;100.00;101995.91;5570087;32;34693;-70
2022/12/18 02:55:37;;;;;;;;;;;;;;;-3.68;100.00;101997.94;5569952;32;34911;-69
2022/12/18 02:58:59;;;;;;;;;;;;;;;-3.59;100.00;102013.28;5569978;32;34588;-70
2022/12/18 03:02:13;;;;;;;;;;;;;;;-3.59;100.00;102016.72;5555678;32;34470;-70
2022/12/18 03:05:22;;;;;;;;;;;;;;;-3.66;100.00;102016.91;5569762;32;34073;-69
2022/12/18 03:08:30;;;;;;;;;;;;;;;-3.61;100.00;102018.50;5556717;32;34624;-69
2022/12/18 03:15:13;;;;;;;;;;;;;;;-3.60;100.00;102025.38;5569755;32;34747;-70
2022/12/18 03:18:35;;;;;;;;;;;;;;;-3.75;100.00;102032.69;5569520;32;35038;-71
2022/12/18 03:21:46;;;;;;;;;;;;;;;-3.72;100.00;102035.19;5569516;32;34641;-71
2022/12/18 03:24:55;;;;;;;;;;;;;;;-3.73;100.00;102039.56;5569424;32;34842;-71
2022/12/18 03:28:05;;;;;;;;;;;;;;;-3.82;100.00;102039.75;5556437;32;34250;-70
2022/12/18 03:31:12;;;;;;;;;;;;;;;-3.85;100.00;102046.75;5569468;32;34191;-70
2022/12/18 03:34:22;;;;;;;;;;;;;;;-3.79;100.00;102047.47;5569414;32;34274;-70
2022/12/18 03:37:31;;;;;;;;;;;;;;;-3.70;100.00;102057.63;5569351;32;34249;-69
2022/12/18 03:40:40;;;;;;;;;;;;;;;-3.83;100.00;102058.81;5556127;32;34085;-70
2022/12/18 03:43:51;;;;;;;;;;;;;;;-3.86;100.00;102066.63;5569001;32;34642;-71
2022/12/18 03:47:05;;;;;;;;;;;;;;;-3.91;100.00;102073.66;5569183;32;34733;-70
2022/12/18 03:50:27;;;;;;;;;;;;;;;-3.94;100.00;102073.75;5569069;32;34773;-70
2022/12/18 03:53:53;;;;;;;;;;;;;;;-3.97;100.00;102066.88;5569119;32;34653;-70
2022/12/18 03:57:05;;;;;;;;;;;;;;;-4.01;100.00;102073.00;5554633;32;34472;-70
2022/12/18 04:00:13;;;;;;;;;;;;;;;-4.14;100.00;102069.00;5570276;32;34813;-71
2022/12/18 04:03:28;;;;;;;;;;;;;;;-4.31;100.00;102076.28;5559284;32;34965;-69
2022/12/18 04:06:34;;;;;;;;;;;;;;;-4.52;100.00;102069.81;5571700;32;34867;-69
2022/12/18 04:09:44;;;;;;;;;;;;;;;-4.32;100.00;102079.75;5572005;32;34887;-70
2022/12/18 04:12:55;;;;;;;;;;;;;;;-4.22;100.00;102085.59;5571609;32;34271;-69
2022/12/18 04:16:02;;;;;;;;;;;;;;;-4.41;100.00;102098.09;5571575;32;34933;-70
2022/12/18 04:19:10;;;;;;;;;;;;;;;-4.19;100.00;102091.56;5571633;32;34058;-70
2022/12/18 04:22:18;;;;;;;;;;;;;;;-4.16;100.00;102093.22;5571334;32;35124;-70
2022/12/18 04:25:27;;;;;;;;;;;;;;;-4.23;100.00;102087.34;5571387;32;34681;-69
2022/12/18 04:28:40;;;;;;;;;;;;;;;-4.20;100.00;102095.03;5571393;32;34766;-70
2022/12/18 04:31:46;;;;;;;;;;;;;;;-4.29;100.00;102094.37;5571468;32;34189;-70
2022/12/18 04:34:54;;;;;;;;;;;;;;;-4.34;100.00;102091.03;5571347;32;35061;-69
2022/12/18 04:37:59;;;;;;;;;;;;;;;-4.44;100.00;102090.38;5571342;32;34191;-70
2022/12/18 04:41:09;;;;;;;;;;;;;;;-4.25;100.00;102102.06;5557469;32;34344;-71
2022/12/18 04:44:16;;;;;;;;;;;;;;;-4.31;100.00;102102.19;5557841;32;34855;-70
2022/12/18 04:47:22;;;;;;;;;;;;;;;-4.29;100.00;102115.09;5571221;32;34300;-70
2022/12/18 04:50:28;;;;;;;;;;;;;;;-4.25;100.00;102112.41;5557451;32;35318;-69
2022/12/18 04:53:37;;;;;;;;;;;;;;;-4.04;100.00;102130.12;5571122;32;34577;-70
2022/12/18 04:56:44;;;;;;;;;;;;;;;-4.13;100.00;102132.06;5571063;32;34994;-70
2022/12/18 04:59:51;;;;;;;;;;;;;;;-4.30;100.00;102129.78;5571095;32;34870;-70
2022/12/18 05:02:58;;;;;;;;;;;;;;;-4.38;100.00;102131.69;5571163;32;34271;-70
2022/12/18 05:06:07;;;;;;;;;;;;;;;-4.45;100.00;102135.28;5556933;32;34222;-70
2022/12/18 05:09:14;;;;;;;;;;;;;;;-4.29;100.00;102141.00;5570960;32;34249;-70
2022/12/18 05:12:21;;;;;;;;;;;;;;;-4.31;100.00;102135.03;5570491;32;34856;-71
2022/12/18 05:15:29;;;;;;;;;;;;;;;-4.27;100.00;102141.84;5570928;32;34792;-69
2022/12/18 05:18:37;;;;;;;;;;;;;;;-4.47;100.00;102156.03;5570796;32;34338;-69
2022/12/18 05:21:44;;;;;;;;;;;;;;;-4.63;100.00;102152.03;5557557;32;34248;-69
2022/12/18 05:24:52;;;;;;;;;;;;;;;-4.60;100.00;102145.94;5570669;32;34407;-71
2022/12/18 05:27:58;;;;;;;;;;;;;;;-4.54;100.00;102154.44;5557200;32;34523;-70
2022/12/18 05:31:06;;;;;;;;;;;;;;;-4.65;100.00;102164.16;5570861;32;34571;-70
2022/12/18 05:34:14;;;;;;;;;;;;;;;-4.69;100.00;102171.97;5570861;32;34287;-70
2022/12/18 05:37:21;;;;;;;;;;;;;;;-4.62;100.00;102166.69;5570700;32;34228;-70
2022/12/18 05:40:30;;;;;;;;;;;;;;;-4.74;100.00;102174.66;5556922;32;35079;-69
2022/12/18 05:43:38;;;;;;;;;;;;;;;-4.72;100.00;102175.50;5570853;32;34659;-71
2022/12/18 05:46:46;;;;;;;;;;;;;;;-4.65;100.00;102174.53;5556627;32;34336;-70
2022/12/18 05:49:57;;;;;;;;;;;;;;;-4.58;100.00;102186.47;5570583;32;34840;-70
2022/12/18 05:53:03;;;;;;;;;;;;;;;-4.61;100.00;102176.16;5570652;32;34725;-70
2022/12/18 05:56:12;;;;;;;;;;;;;;;-4.62;100.00;102186.53;5556561;32;33334;-71
2022/12/18 05:59:20;;;;;;;;;;;;;;;-4.66;100.00;102196.13;5570546;32;35023;-71
2022/12/18 06:02:27;;;;;;;;;;;;;;;-4.55;100.00;102198.50;5570708;32;34144;-70
2022/12/18 06:05:37;;;;;;;;;;;;;;;-4.64;100.00;102198.66;5570485;32;34944;-70
2022/12/18 06:08:44;;;;;;;;;;;;;;;-4.73;100.00;102206.59;5570538;32;34279;-71
2022/12/18 06:11:52;;;;;;;;;;;;;;;-4.71;100.00;102204.84;5570523;32;33099;-70
2022/12/18 06:14:59;;;;;;;;;;;;;;;-4.73;100.00;102214.34;5570358;32;34940;-70
2022/12/18 06:18:06;;;;;;;;;;;;;;;-4.61;100.00;102201.22;5570424;32;34716;-71
2022/12/18 06:21:14;;;;;;;;;;;;;;;-4.51;100.00;102203.59;5570355;32;34075;-70
2022/12/18 06:24:21;;;;;;;;;;;;;;;-4.49;100.00;102212.19;5568894;32;34109;-71
2022/12/18 06:27:27;;;;;;;;;;;;;;;-4.67;100.00;102207.34;5570260;32;35069;-70
2022/12/18 06:30:36;;;;;;;;;;;;;;;-4.60;100.00;102216.69;5570204;32;34954;-70
2022/12/18 06:33:41;;;;;;;;;;;;;;;-4.66;100.00;102216.81;5570246;32;34242;-71
2022/12/18 06:36:53;;;;;;;;;;;;;;;-4.58;100.00;102229.63;5570103;32;34123;-71
2022/12/18 06:39:58;;;;;;;;;;;;;;;-4.43;100.00;102232.81;5570367;32;34576;-71
2022/12/18 06:43:07;;;;;;;;;;;;;;;-4.39;100.00;102231.88;5569956;32;34282;-71
2022/12/18 06:46:15;;;;;;;;;;;;;;;-4.32;100.00;102240.37;5570006;32;34910;-71
2022/12/18 06:49:21;;;;;;;;;;;;;;;-4.34;100.00;102254.25;5570063;32;34672;-71
2022/12/18 06:52:36;;;;;;;;;;;;;;;-4.40;100.00;102252.59;5557389;32;34332;-71
2022/12/18 06:55:43;;;;;;;;;;;;;;;-4.50;100.00;102266.59;5569954;32;34892;-70
2022/12/18 06:58:52;;;;;;;;;;;;;;;-4.54;100.00;102268.41;5569739;32;35085;-70
2022/12/18 07:01:59;;;;;;;;;;;;;;;-4.76;100.00;102271.38;5555612;32;33177;-70
2022/12/18 07:05:06;;;;;;;;;;;;;;;-4.87;100.00;102272.38;5569743;32;34328;-71
2022/12/18 07:08:15;;;;;;;;;;;;;;;-4.77;100.00;102280.00;5569852;32;34851;-71
2022/12/18 07:11:24;;;;;;;;;;;;;;;-4.79;100.00;102284.37;5569595;32;34912;-71
2022/12/18 07:14:31;;;;;;;;;;;;;;;-4.71;100.00;102292.88;5569602;32;34717;-70
2022/12/18 07:17:39;;;;;;;;;;;;;;;-4.65;100.00;102303.12;5569527;32;34823;-70
2022/12/18 07:20:46;;;;;;;;;;;;;;;-4.60;100.00;102298.75;5569861;32;34339;-71
2022/12/18 07:23:55;;;;;;;;;;;;;;;-4.43;100.00;102307.94;5569576;32;34953;-71
2022/12/18 07:27:02;;;;;;;;;;;;;;;-4.43;100.00;102309.66;5569409;32;34837;-71
2022/12/18 07:30:13;;;;;;;;;;;;;;;-4.44;100.00;102316.56;5555514;32;34772;-71
2022/12/18 07:33:21;;;;;;;;;;;;;;;-4.45;100.00;102322.63;5569432;32;34290;-71
2022/12/18 07:36:29;;;;;;;;;;;;;;;-4.33;100.00;102325.91;5571390;32;34680;-70
2022/12/18 07:39:37;;;;;;;;;;;;;;;-4.30;100.00;102338.78;5571674;32;34828;-71
2022/12/18 07:42:42;;;;;;;;;;;;;;;-4.25;100.00;102332.66;5557937;32;35071;-71
2022/12/18 07:45:50;;;;;;;;;;;;;;;-4.25;100.00;102342.16;5571301;32;34200;-71
2022/12/18 07:48:59;;;;;;;;;;;;;;;-4.23;100.00;102343.88;5558495;32;34983;-71
2022/12/18 07:52:06;;;;;;;;;;;;;;;-4.23;100.00;102353.38;5571534;32;34454;-71
2022/12/18 07:55:14;;;;;;;;;;;;;;;-4.19;100.00;102355.87;5571667;32;34689;-71
2022/12/18 07:58:24;;;;;;;;;;;;;;;-4.21;100.00;102354.22;5571683;32;34616;-71
2022/12/18 08:01:30;;;;;;;;;;;;;;;-4.19;100.00;102363.66;5571165;32;34773;-70
2022/12/18 08:04:39;;;;;;;;;;;;;;;-4.11;100.00;102372.16;5571421;32;34886;-71
2022/12/18 08:07:44;;;;;;;;;;;;;;;-4.07;100.00;102370.38;5571375;32;35220;-71
2022/12/18 08:10:51;;;;;;;;;;;;;;;-4.04;100.00;102370.31;5571456;32;34877;-71
2022/12/18 08:13:57;;;;;;;;;;;;;;;-3.95;100.00;102378.78;5571372;32;34898;-71
2022/12/18 08:17:05;;;;;;;;;;;;;;;-3.89;100.00;102385.59;5571350;32;34750;-71
2022/12/18 08:20:11;;;;;;;;;;;;;;;-3.71;100.00;102387.00;5571370;32;34991;-71
2022/12/18 08:23:17;;;;;;;;;;;;;;;-3.63;100.00;102393.75;5571297;32;34598;-71
2022/12/18 08:26:22;;;;;;;;;;;;;;;-3.45;100.00;102395.16;5571243;32;34146;-71
2022/12/18 08:29:30;;;;;;;;;;;;;;;-3.35;100.00;102398.44;5571302;32;34294;-69
2022/12/18 08:32:36;;;;;;;;;;;;;;;-3.38;100.00;102395.87;5571099;32;34513;-71
2022/12/18 08:35:43;;;;;;;;;;;;;;;-3.43;100.00;102397.72;5571188;32;34412;-71
2022/12/18 08:38:49;;;;;;;;;;;;;;;-3.35;100.00;102401.03;5571209;32;34180;-71
2022/12/18 08:45:24;;;;;;;;;;;;;;;-3.27;100.00;102396.53;5570736;32;34848;-71
2022/12/18 08:48:31;;;;;;;;;;;;;;;-3.14;100.00;102400.56;5570839;32;33415;-70
2022/12/18 08:51:39;;;;;;;;;;;;;;;-3.07;100.00;102400.44;5571007;32;34946;-71
2022/12/18 08:54:46;;;;;;;;;;;;;;;-3.15;100.00;102402.31;5571151;32;34541;-71
2022/12/18 08:57:55;;;;;;;;;;;;;;;-3.15;100.00;102411.88;5571134;32;34346;-71
2022/12/18 09:01:07;;;;;;;;;;;;;;;-3.12;100.00;102415.25;5557467;32;33883;-71
2022/12/18 09:04:13;;;;;;;;;;;;;;;-2.99;100.00;102415.84;5570853;32;35170;-71
2022/12/18 09:07:19;;;;;;;;;;;;;;;-2.68;100.00;102421.25;5570879;32;34877;-71
2022/12/18 09:10:23;;;;;;;;;;;;;;;-2.60;100.00;102429.72;5570898;32;34539;-71
2022/12/18 09:13:30;;;;;;;;;;;;;;;-2.60;100.00;102432.31;5556975;32;34080;-71
2022/12/18 09:16:37;;;;;;;;;;;;;;;-2.53;100.00;102443.44;5570316;32;35079;-71
2022/12/18 09:19:45;;;;;;;;;;;;;;;-2.47;100.00;102446.72;5570959;32;33923;-71
2022/12/18 09:22:51;;;;;;;;;;;;;;;-2.48;100.00;102441.59;5570873;32;34959;-71
2022/12/18 09:26:01;;;;;;;;;;;;;;;-2.37;100.00;102430.03;5570799;32;34298;-71
2022/12/18 09:29:08;;;;;;;;;;;;;;;-2.27;100.00;102434.13;5571150;32;34989;-71
2022/12/18 09:32:14;;;;;;;;;;;;;;;-2.31;100.00;102432.50;5570986;32;34993;-71
2022/12/18 09:35:27;;;;;;;;;;;;;;;-2.04;100.00;102427.56;5570200;32;34743;-71
2022/12/18 09:38:35;;;;;;;;;;;;;;;-2.05;100.00;102424.09;5570547;32;34866;-71
2022/12/18 09:41:45;;;;;;;;;;;;;;;-2.20;100.00;102432.25;5570530;32;34220;-71
2022/12/18 09:44:53;;;;;;;;;;;;;;;-2.18;100.00;102429.63;5556365;32;35583;-71
2022/12/18 09:48:02;;;;;;;;;;;;;;;-1.93;100.00;102428.97;5556626;32;34193;-72
2022/12/18 09:51:11;;;;;;;;;;;;;;;-2.00;100.00;102419.63;5570679;32;34992;-72
2022/12/18 09:54:21;;;;;;;;;;;;;;;-1.92;100.00;102432.44;5556757;32;33506;-71
2022/12/18 09:57:27;;;;;;;;;;;;;;;-1.96;100.00;102428.22;5570286;31;34922;-71
2022/12/18 10:00:32;;;;;;;;;;;;;;;-1.81;100.00;102423.47;5570240;32;34215;-71
2022/12/18 10:03:38;;;;;;;;;;;;;;;-1.80;100.00;102424.34;5569886;32;34805;-72
2022/12/18 10:06:43;;;;;;;;;;;;;;;-1.61;100.00;102432.53;5555929;32;35675;-71
2022/12/18 10:09:54;;;;;;;;;;;;;;;-1.65;100.00;102430.91;5570274;32;34854;-71
2022/12/18 10:13:15;;;;;;;;;;;;;;;-1.52;100.00;102425.31;5570320;32;34413;-72
2022/12/18 10:16:26;;;;;;;;;;;;;;;-1.45;100.00;102429.44;5570336;32;34150;-72
2022/12/18 10:19:49;;;;;;;;;;;;;;;-1.41;100.00;102425.91;5570141;32;34491;-72
2022/12/18 10:23:01;;;;;;;;;;;;;;;-1.30;100.00;102420.37;5570349;32;34640;-71
2022/12/18 10:26:08;;;;;;;;;;;;;;;-0.99;100.00;102421.22;5556111;32;34180;-71
2022/12/18 10:29:15;;;;;;;;;;;;;;;-1.02;100.00;102423.06;5570096;32;34849;-71
2022/12/18 10:32:22;;;;;;;;;;;;;;;-1.10;100.00;102422.41;5569732;32;34262;-71
2022/12/18 10:35:29;;;;;;;;;;;;;;;-1.09;100.00;102411.97;5570103;32;34303;-69
2022/12/18 10:38:39;;;;;;;;;;;;;;;-0.98;100.00;102414.28;5569948;32;34608;-70
2022/12/18 10:41:46;;;;;;;;;;;;;;;-0.82;100.00;102409.47;5570058;32;34898;-71
2022/12/18 10:45:01;;;;;;;;;;;;;;;-0.84;100.00;102412.09;5569834;32;34424;-71
2022/12/18 10:48:17;;;;;;;;;;;;;;;-0.66;100.00;102408.09;5570070;32;34898;-71
2022/12/18 10:51:24;;;;;;;;;;;;;;;-0.50;100.00;102418.00;5570303;32;34883;-71
2022/12/18 10:54:34;;;;;;;;;;;;;;;-0.49;100.00;102416.25;5556899;32;34128;-70
2022/12/18 10:57:41;;;;;;;;;;;;;;;-0.49;100.00;102413.66;5569563;32;35010;-71
2022/12/18 11:01:01;;;;;;;;;;;;;;;-0.48;100.00;102410.13;5556253;32;34761;-71
2022/12/18 11:04:09;;;;;;;;;;;;;;;-0.24;100.00;102413.72;5569556;32;34839;-71
2022/12/18 11:07:16;;;;;;;;;;;;;;;-0.18;100.00;102403.94;5569646;32;34190;-71
2022/12/18 11:10:30;;;;;;;;;;;;;;;-0.18;100.00;102403.94;5555021;32;33818;-71
2022/12/18 11:13:38;;;;;;;;;;;;;;;-0.17;100.00;102400.44;5569720;32;34018;-71
2022/12/18 11:16:44;;;;;;;;;;;;;;;-0.13;100.00;102394.19;5569715;32;34885;-71
2022/12/18 11:20:30;;;;;;;;;;;;;;;-0.13;100.00;102395.97;5569389;32;34727;-70
2022/12/18 11:23:36;;;;;;;;;;;;;;;0.01;100.00;102393.75;5569364;32;34635;-71
2022/12/18 11:26:43;;;;;;;;;;;;;;;0.04;100.00;102400.63;5568596;32;34174;-71
2022/12/18 11:29:50;;;;;;;;;;;;;;;0.08;99.45;102395.25;5555541;32;35117;-70
2022/12/18 11:33:02;;;;;;;;;;;;;;;0.26;98.55;102401.59;5569354;32;34193;-70
2022/12/18 11:36:09;;;;;;;;;;;;;;;0.31;97.08;102402.28;5555716;32;34377;-71
2022/12/18 11:39:17;;;;;;;;;;;;;;;0.32;97.07;102393.56;5569041;32;34239;-70
2022/12/18 11:42:25;;;;;;;;;;;;;;;0.28;95.76;102389.34;5568857;32;34684;-71
2022/12/18 11:45:35;;;;;;;;;;;;;;;0.31;97.87;102392.69;5568884;32;34950;-70
2022/12/18 11:48:49;;;;;;;;;;;;;;;0.58;95.10;102382.22;5568887;32;34211;-70
2022/12/18 11:52:04;;;;;;;;;;;;;;;0.58;96.47;102388.25;5568979;32;34338;-71
2022/12/18 11:55:13;;;;;;;;;;;;;;;0.56;94.58;102384.88;5568965;32;34862;-70
2022/12/18 11:58:37;;;;;;;;;;;;;;;0.61;94.50;102377.72;5568616;32;34860;-70
2022/12/18 12:01:52;;;;;;;;;;;;;;;0.79;91.67;102382.25;5568531;32;34515;-70
2022/12/18 12:05:17;;;;;;;;;;;;;;;1.17;89.27;102379.97;5555149;32;35655;-70
2022/12/18 12:08:37;;;;;;;;;;;;;;;1.28;88.20;102381.25;5555063;32;32701;-71
2022/12/18 12:12:02;;;;;;;;;;;;;;;1.68;85.04;102369.22;5568712;32;34303;-71
2022/12/18 12:15:22;;;;;;;;;;;;;;;1.83;83.69;102371.22;5568501;32;34525;-71
2022/12/18 12:18:35;;;;;;;;;;;;;;;1.80;82.48;102370.47;5568559;32;34267;-71
2022/12/18 12:21:48;;;;;;;;;;;;;;;1.59;81.81;102370.44;5555731;32;35586;-71
2022/12/18 12:25:12;;;;;;;;;;;;;;;1.60;81.76;102366.03;5571321;32;34322;-71
2022/12/18 12:28:35;;;;;;;;;;;;;;;1.43;82.59;102368.50;5571415;32;34336;-72
2022/12/18 12:31:38;;;;;;;;;;;;;;;1.45;81.30;102372.78;5571184;32;34720;-71
2022/12/18 12:34:43;;;;;;;;;;;;;;;1.57;80.84;102379.25;5571089;32;34697;-71
2022/12/18 12:38:12;;;;;;;;;;;;;;;1.77;80.56;102376.69;5570949;32;34276;-71
2022/12/18 12:44:47;;;;;;;;;;;;;;;1.35;81.52;102375.81;5570915;32;34460;-71
2022/12/18 12:48:02;;;;;;;;;;;;;;;1.24;82.00;102377.06;5570897;32;34416;-72
2022/12/18 12:51:28;;;;;;;;;;;;;;;1.24;82.79;102386.66;5570946;32;34241;-71
2022/12/18 12:54:35;;;;;;;;;;;;;;;1.19;82.57;102384.25;5557326;32;35076;-70
2022/12/18 12:57:47;;;;;;;;;;;;;;;1.21;83.25;102394.66;5571105;32;34846;-71
2022/12/18 13:01:11;;;;;;;;;;;;;;;1.26;84.23;102404.00;5557221;32;33403;-71
2022/12/18 13:04:39;;;;;;;;;;;;;;;1.26;84.53;102404.00;5570839;32;34211;-71
2022/12/18 13:08:10;;;;;;;;;;;;;;;1.22;83.67;102398.94;5557115;32;34954;-71
2022/12/18 13:15:21;;;;;;;;;;;;;;;1.33;85.16;102411.59;5570878;32;34759;-71
2022/12/18 13:18:32;;;;;;;;;;;;;;;1.42;85.82;102412.09;5570618;32;34320;-70
2022/12/18 13:21:40;;;;;;;;;;;;;;;1.31;88.76;102419.50;5570597;32;35057;-71
2022/12/18 13:24:47;;;;;;;;;;;;;;;1.17;91.80;102409.56;5570819;32;34806;-70
2022/12/18 13:28:15;;;;;;;;;;;;;;;1.10;88.18;102417.72;5570791;32;34314;-73
2022/12/18 13:31:23;;;;;;;;;;;;;;;1.09;85.87;102424.69;5570758;32;34978;-71
2022/12/18 13:34:29;;;;;;;;;;;;;;;1.10;86.09;102418.56;5556607;32;34256;-70
2022/12/18 13:37:40;;;;;;;;;;;;;;;1.19;87.05;102418.22;5570608;32;34950;-71
2022/12/18 13:40:47;;;;;;;;;;;;;;;1.26;84.11;102430.13;5556877;32;34335;-70
2022/12/18 13:43:57;;;;;;;;;;;;;;;1.11;86.40;102429.87;5556910;32;35504;-71
2022/12/18 13:47:05;;;;;;;;;;;;;;;0.96;86.10;102431.31;5570027;32;34243;-71
2022/12/18 13:50:26;;;;;;;;;;;;;;;0.84;86.43;102429.97;5570616;32;34587;-71
2022/12/18 13:53:52;;;;;;;;;;;;;;;0.92;85.45;102431.47;5570353;32;34398;-70
2022/12/18 13:56:59;;;;;;;;;;;;;;;0.88;85.56;102434.19;5570406;32;34253;-70
2022/12/18 14:00:33;;;;;;;;;;;;;;;0.83;85.41;102438.72;5556737;32;35542;-70
2022/12/18 14:03:36;;;;;;;;;;;;;;;0.79;85.51;102442.34;5557408;32;34836;-71
2022/12/18 14:06:42;;;;;;;;;;;;;;;0.73;86.40;102442.56;5570291;32;34230;-70
2022/12/18 14:09:50;;;;;;;;;;;;;;;0.62;87.00;102443.87;5570615;32;34772;-69
2022/12/18 14:13:19;;;;;;;;;;;;;;;0.48;88.76;102444.34;5570163;32;34809;-70
2022/12/18 14:16:25;;;;;;;;;;;;;;;0.39;89.73;102448.09;5570141;32;34250;-70
2022/12/18 14:19:31;;;;;;;;;;;;;;;0.34;92.13;102442.19;5556174;32;33121;-70
2022/12/18 14:22:43;;;;;;;;;;;;;;;0.21;93.29;102445.28;5570172;32;34237;-70
2022/12/18 14:25:48;;;;;;;;;;;;;;;0.04;94.07;102440.63;5556299;32;35516;-70
2022/12/18 14:28:58;;;;;;;;;;;;;;;-0.03;94.94;102437.34;5570126;32;34812;-70
2022/12/18 14:32:11;;;;;;;;;;;;;;;-0.11;97.40;102441.13;5569715;32;34287;-70
2022/12/18 14:35:22;;;;;;;;;;;;;;;-0.23;99.96;102451.94;5570145;32;34208;-72
2022/12/18 14:38:37;;;;;;;;;;;;;;;-0.36;100.00;102454.06;5570243;32;34289;-71
2022/12/18 14:41:48;;;;;;;;;;;;;;;-0.46;100.00;102452.66;5556998;32;34253;-70
2022/12/18 14:45:12;;;;;;;;;;;;;;;-0.59;100.00;102460.00;5568791;32;34340;-69
2022/12/18 14:48:19;;;;;;;;;;;;;;;-0.67;100.00;102467.16;5569781;32;34771;-71
2022/12/18 14:51:26;;;;;;;;;;;;;;;-0.80;100.00;102465.84;5555991;32;34092;-70
2022/12/18 14:54:35;;;;;;;;;;;;;;;-0.81;100.00;102471.94;5569838;32;34559;-70
2022/12/18 14:57:43;;;;;;;;;;;;;;;-0.89;100.00;102482.59;5543425;32;34515;-71
2022/12/18 15:00:51;;;;;;;;;;;;;;;-0.95;100.00;102489.72;5555977;32;34940;-71
2022/12/18 15:03:59;;;;;;;;;;;;;;;-1.00;100.00;102487.25;5569922;32;34248;-70
2022/12/18 15:07:22;;;;;;;;;;;;;;;-1.10;100.00;102491.00;5569786;32;34847;-71
2022/12/18 15:10:32;;;;;;;;;;;;;;;-1.13;100.00;102501.50;5569604;32;34742;-70
2022/12/18 15:13:40;;;;;;;;;;;;;;;-1.25;100.00;102501.81;5569697;32;34795;-70
2022/12/18 15:16:51;;;;;;;;;;;;;;;-1.34;100.00;102508.13;5569627;32;34982;-69
2022/12/18 15:20:03;;;;;;;;;;;;;;;-1.41;100.00;102504.00;5569507;32;34218;-70
2022/12/18 15:23:17;;;;;;;;;;;;;;;-1.48;100.00;102512.84;5569393;32;34227;-70
2022/12/18 15:26:23;;;;;;;;;;;;;;;-1.56;100.00;102512.19;5569277;32;34717;-70
2022/12/18 15:29:27;;;;;;;;;;;;;;;-1.66;100.00;102515.06;5569511;32;34502;-70
2022/12/18 15:32:36;;;;;;;;;;;;;;;-1.76;100.00;102517.87;5569379;32;34175;-70
2022/12/18 15:35:45;;;;;;;;;;;;;;;-1.77;100.00;102531.78;5569303;32;34343;-70
2022/12/18 15:38:52;;;;;;;;;;;;;;;-1.82;100.00;102536.22;5542884;32;34211;-70
2022/12/18 15:45:25;;;;;;;;;;;;;;;-1.89;100.00;102533.81;5568636;32;34477;-70
2022/12/18 15:48:30;;;;;;;;;;;;;;;-1.93;100.00;102547.75;5569103;32;34712;-69
2022/12/18 15:51:40;;;;;;;;;;;;;;;-2.02;100.00;102550.59;5556208;32;34334;-68
2022/12/18 15:58:12;;;;;;;;;;;;;;;-2.09;100.00;102562.88;5571582;32;34259;-70
2022/12/18 16:01:19;;;;;;;;;;;;;;;-1.94;100.00;102574.69;5557626;32;34877;-69
2022/12/18 16:04:26;;;;;;;;;;;;;;;-1.97;100.00;102570.41;5558336;32;34921;-69
2022/12/18 16:07:32;;;;;;;;;;;;;;;-2.10;100.00;102565.50;5557449;32;34881;-69
2022/12/18 16:10:40;;;;;;;;;;;;;;;-2.22;100.00;102567.47;5557669;32;32923;-69
2022/12/18 16:13:50;;;;;;;;;;;;;;;-2.28;100.00;102571.97;5571762;32;34359;-69
2022/12/18 16:16:59;;;;;;;;;;;;;;;-2.32;100.00;102571.16;5571425;32;34345;-69
2022/12/18 16:20:08;;;;;;;;;;;;;;;-2.35;100.00;102572.97;5571418;32;34068;-69
2022/12/18 16:23:17;;;;;;;;;;;;;;;-2.34;100.00;102580.75;5557573;32;35007;-69
2022/12/18 16:26:24;;;;;;;;;;;;;;;-2.38;100.00;102584.31;5557540;32;34931;-69
2022/12/18 16:29:31;;;;;;;;;;;;;;;-2.32;100.00;102591.97;5571397;32;34434;-69
2022/12/18 16:32:37;;;;;;;;;;;;;;;-2.40;100.00;102590.41;5571291;32;35103;-69